• Join FlightAware (Why Join?)
  • Login
  • US Flag 
06:53PM EDT


 

Airport Tracker/Info


-or-


 

Live Flight TrackerFlight Track Log ✈ SQC7971 ✈ 23-May-2013 ✈ KORD - EBBR / BRU

Flight Track Log - Related Links

Times and Time Zones

All times are in EDT time to prevent confusion due to time zone crossing. See the SQC7971 flight status page for this flight to view local times or setup timezone preferences in your user account.

Time Position Orientation Groundspeed Altitude Reporting Facility
EDT Latitude Longitude Course Direction KTS MPH feet Rate Location/Type
05:50AM 42.0167 -87.9500 323° Northwest 175 201 2,300  Level Chicago TRACON
05:51AM 42.0500 -87.9833 323° Northwest 182 209 4,000 1,020 Climbing Chicago TRACON
05:53AM 42.1406 -87.9303 23° Northeast 230 265 5,000 1,260 Climbing Chicago Center
05:54AM 42.2108 -87.8925 22° Northeast 266 306 7,300 2,460 Climbing Chicago Center
05:55AM 42.2836 -87.8542 21° North 280 322 10,000 1,980 Climbing Chicago Center
05:56AM 42.3606 -87.8178 19° North 313 360 11,400 1,380 Climbing Chicago Center
05:57AM 42.4569 -87.7808 16° North 354 407 12,800 1,920 Climbing Chicago Center
05:58AM 42.5678 -87.7372 16° North 396 456 15,300 2,280 Climbing Chicago Center
05:59AM 42.6725 -87.6958 16° North 406 467 17,500 2,100 Climbing Chicago Center
06:00AM 42.7847 -87.6492 17° North 419 482 19,600 1,920 Climbing Chicago Center
06:01AM 42.8553 -87.5161 54° Northeast 449 517 21,400 1,680 Climbing Chicago Center
06:02AM 42.9094 -87.3728 63° Northeast 450 518 23,100 1,560 Climbing Chicago Center
06:03AM 42.9778 -87.2186 59° Northeast 466 536 24,600 1,380 Climbing Chicago Center
06:04AM 43.0489 -87.0631 58° Northeast 477 549 25,900 1,320 Climbing Chicago Center
06:05AM 43.1231 -86.9031 58° Northeast 489 563 27,300 1,320 Climbing Chicago Center
06:06AM 43.1969 -86.7392 58° Northeast 500 575 28,600 1,380 Climbing Chicago Center
06:07AM 43.2625 -86.5650 63° Northeast 509 586 30,200 1,500 Climbing Chicago Center
06:08AM 43.3303 -86.3931 62° Northeast 509 586 31,700 1,320 Climbing Chicago Center
06:09AM 43.3989 -86.2192 61° Northeast 512 589 32,900 600 Climbing Chicago Center
06:10AM 43.4664 -86.0458 62° Northeast 511 588 33,000  Climbing Chicago Center
06:11AM 43.5342 -85.8722 62° Northeast 511 588 33,000  Level Chicago Center
06:12AM 43.6017 -85.6947 62° Northeast 519 597 33,000  Level Chicago Center
06:12AM 43.6556 -85.5550 62° Northeast 515 593 33,000  Level Minneapolis Center
06:13AM 43.7236 -85.3769 62° Northeast 521 600 33,000  Level Minneapolis Center
06:14AM 43.7767 -85.2347 63° Northeast 521 600 33,000  Level Minneapolis Center
06:15AM 43.8583 -85.0214 62° Northeast 523 602 33,000  Level Minneapolis Center
06:16AM 43.9239 -84.8433 63° Northeast 520 598 33,000  Level Minneapolis Center
06:18AM 43.9914 -84.6667 62° Northeast 519 597 33,000  Level Minneapolis Center
06:19AM 44.0483 -84.5100 63° Northeast 515 593 33,000  Level Minneapolis Center
06:20AM 44.1133 -84.3314 63° Northeast 520 598 33,000  Level Minneapolis Center
06:21AM 44.1797 -84.1531 63° Northeast 522 601 33,000  Level Minneapolis Center
06:22AM 44.2589 -83.9350 63° Northeast 527 606 33,000  Level Minneapolis Center
06:23AM 44.3253 -83.7525 63° Northeast 530 610 33,000  Level Minneapolis Center
06:24AM 44.3903 -83.5681 64° Northeast 530 610 33,000  Level Minneapolis Center
06:25AM 44.4614 -83.3831 62° Northeast 538 619 33,000  Level Minneapolis Center
06:26AM 44.5606 -83.2225 49° Northeast 543 625 33,000  Level Minneapolis Center
06:27AM 44.6631 -83.0639 48° Northeast 549 632 33,000  Level Minneapolis Center
06:28AM 44.7658 -82.9033 48° Northeast 552 635 33,000  Level Minneapolis Center
06:28AM 44.7833 -82.8333 71° East 550 633 33,000  Level Toronto Center
06:29AM 44.9000 -82.6667 45° Northeast 550 633 33,000  Level Toronto Center
06:30AM 45.0000 -82.5167 47° Northeast 560 644 33,000  Level Toronto Center
06:31AM 45.0833 -82.3500 55° Northeast 550 633 33,000  Level Toronto Center
06:32AM 45.1833 -82.1833 50° Northeast 550 633 33,000  Level Toronto Center
06:33AM 45.2833 -82.0333 47° Northeast 550 633 33,000  Level Toronto Center
06:34AM 45.4000 -81.8667 45° Northeast 550 633 33,000  Level Toronto Center
06:35AM 45.4833 -81.7000 54° Northeast 550 633 33,000  Level Toronto Center
06:36AM 45.5833 -81.5167 52° Northeast 550 633 33,000  Level Toronto Center
06:37AM 45.6833 -81.3500 49° Northeast 560 644 33,000  Level Toronto Center
06:38AM 45.7833 -81.1833 49° Northeast 560 644 33,000  Level Toronto Center
06:39AM 45.8833 -81.0167 49° Northeast 560 644 33,000  Level Toronto Center
06:40AM 46.0000 -80.8500 45° Northeast 560 644 33,000  Level Toronto Center
06:41AM 46.1000 -80.6667 52° Northeast 560 644 33,000  Level Toronto Center
06:42AM 46.2000 -80.5000 49° Northeast 560 644 33,000  Level Toronto Center
06:43AM 46.3000 -80.3333 49° Northeast 560 644 33,000  Level Toronto Center
06:44AM 46.3833 -80.1667 54° Northeast 560 644 33,000  Level Toronto Center
06:45AM 46.4833 -80.0000 49° Northeast 560 644 33,000  Level Toronto Center
06:46AM 46.5833 -79.8000 54° Northeast 560 644 33,000  Level Toronto Center
06:47AM 46.6833 -79.6333 49° Northeast 560 644 33,000  Level Toronto Center
06:48AM 46.7833 -79.4667 49° Northeast 560 644 33,000  Level Toronto Center
06:49AM 46.8833 -79.2667 54° Northeast 570 656 33,000  Level Toronto Center
06:50AM 46.9833 -79.1000 49° Northeast 580 667 33,000  Level Toronto Center
06:51AM 47.0833 -78.9000 54° Northeast 580 667 33,000  Level Toronto Center
06:52AM 47.1667 -78.7500 51° Northeast 580 667 33,000  Level Montreal Center
06:53AM 47.2667 -78.5667 51° Northeast 580 667 33,000  Level Montreal Center
06:54AM 47.3667 -78.4000 48° Northeast 580 667 33,000  Level Montreal Center
06:55AM 47.4667 -78.1833 56° Northeast 580 667 33,000  Level Montreal Center
06:56AM 47.5667 -78.0000 51° Northeast 580 667 33,000  Level Montreal Center
06:57AM 47.6667 -77.7833 56° Northeast 580 667 33,000  Level Montreal Center
06:58AM 47.7667 -77.6167 48° Northeast 580 667 33,000  Level Montreal Center
06:59AM 47.8667 -77.4167 53° Northeast 580 667 33,000  Level Montreal Center
07:00AM 47.9500 -77.2167 58° Northeast 580 667 33,000  Level Montreal Center
07:01AM 48.0500 -77.0167 53° Northeast 580 667 33,000  Level Montreal Center
07:02AM 48.1500 -76.8500 48° Northeast 580 667 33,000  Level Montreal Center
07:03AM 48.2667 -76.6167 53° Northeast 580 667 33,000  Level Montreal Center
07:04AM 48.3500 -76.4500 53° Northeast 590 679 33,000  Level Montreal Center
07:05AM 48.4500 -76.2167 57° Northeast 590 679 33,000  Level Montreal Center
07:06AM 48.5500 -76.0500 48° Northeast 590 679 33,000  Level Montreal Center
07:07AM 48.6500 -75.8167 57° Northeast 590 679 33,000  Level Montreal Center
07:08AM 48.7333 -75.6333 55° Northeast 590 679 33,000  Level Montreal Center
07:09AM 48.8333 -75.4000 57° Northeast 590 679 33,000  Level Montreal Center
07:10AM 48.9333 -75.2167 50° Northeast 590 679 33,000  Level Montreal Center
07:11AM 49.0167 -75.0167 58° Northeast 590 679 33,000  Level Montreal Center
07:12AM 49.1167 -74.8167 53° Northeast 590 679 33,000  Level Montreal Center
07:13AM 49.2167 -74.6000 55° Northeast 600 690 33,000  Level Montreal Center
07:14AM 49.3000 -74.3667 61° Northeast 600 690 33,000  Level Montreal Center
07:15AM 49.4000 -74.1833 50° Northeast 600 690 33,000  Level Montreal Center
07:16AM 49.5000 -73.9500 57° Northeast 600 690 33,000  Level Montreal Center
07:17AM 49.5833 -73.7667 55° Northeast 600 690 33,000  Level Montreal Center
07:18AM 49.6833 -73.5167 58° Northeast 600 690 33,000  Level Montreal Center
07:19AM 49.7833 -73.3333 50° Northeast 600 690 33,000  Level Montreal Center
07:20AM 49.8667 -73.1000 61° Northeast 600 690 33,000  Level Montreal Center
07:21AM 49.9667 -72.8833 54° Northeast 600 690 33,000  Level Montreal Center
07:22AM 50.0667 -72.6667 54° Northeast 600 690 33,000  Level Montreal Center
07:23AM 50.1333 -72.4500 64° Northeast 590 679 33,000  Level Montreal Center
07:24AM 50.2333 -72.2500 52° Northeast 590 679 33,000  Level Montreal Center
07:25AM 50.3333 -72.0167 56° Northeast 590 679 33,000  Level Montreal Center
07:26AM 50.4167 -71.8167 57° Northeast 590 679 33,000  Level Montreal Center
07:27AM 50.5167 -71.5667 58° Northeast 590 679 33,000  Level Montreal Center
07:28AM 50.5833 -71.3833 60° Northeast 590 679 33,000  Level Montreal Center
07:29AM 50.6833 -71.1333 58° Northeast 590 679 33,000  Level Montreal Center
07:30AM 50.7667 -70.9333 57° Northeast 590 679 33,000  Level Montreal Center
07:31AM 50.8667 -70.6833 58° Northeast 590 679 33,000  Level Montreal Center
07:32AM 50.9333 -70.4667 64° Northeast 590 679 33,000  Level Montreal Center
07:33AM 51.0500 -70.2333 51° Northeast 590 679 33,000  Level Montreal Center
07:34AM 51.1167 -70.0333 62° Northeast 590 679 33,000  Level Montreal Center
07:35AM 51.1833 -69.7833 67° East 590 679 33,000  Level Montreal Center
07:36AM 51.2500 -69.5333 67° East 580 667 33,000  Level Montreal Center
07:37AM 51.3167 -69.3000 65° Northeast 590 679 33,000  Level Montreal Center
07:38AM 51.3833 -69.0500 67° East 590 679 33,000  Level Montreal Center
07:39AM 51.4333 -68.8333 70° East 590 679 33,000  Level Montreal Center
07:40AM 51.5000 -68.5667 68° East 590 679 33,000  Level Montreal Center
07:41AM 51.5667 -68.3167 67° East 590 679 33,000  Level Montreal Center
07:42AM 51.6167 -68.0833 71° East 590 679 33,000  Level Montreal Center
07:43AM 51.6833 -67.8000 69° East 590 679 33,000  Level Montreal Center
07:44AM 51.7500 -67.5833 64° Northeast 590 679 33,000  Level Montreal Center
07:45AM 51.8167 -67.3167 68° East 590 679 33,000  Level Montreal Center
07:46AM 51.8667 -67.0833 71° East 590 679 33,000  Level Montreal Center
07:47AM 51.9333 -66.8333 67° East 590 679 33,000  Level Montreal Center
07:48AM 52.0000 -66.5667 68° East 590 679 33,000  Level Montreal Center
07:49AM 52.0500 -66.3333 71° East 590 679 33,000  Level Montreal Center
07:50AM 52.1167 -66.0667 68° East 590 679 33,000  Level Montreal Center
07:51AM 52.1667 -65.8167 72° East 590 679 33,000  Level Montreal Center
07:52AM 52.2333 -65.5500 68° East 590 679 33,000  Level Montreal Center
07:53AM 52.2833 -65.3167 71° East 590 679 33,000  Level Montreal Center
07:54AM 52.3500 -65.0833 65° Northeast 590 679 33,000  Level Montreal Center
07:55AM 52.4000 -64.8167 73° East 590 679 33,000  Level Montreal Center
07:56AM 52.4500 -64.5500 73° East 590 679 33,000  Level Montreal Center
07:57AM 52.5000 -64.2833 73° East 600 690 33,000  Level Montreal Center
07:58AM 52.5667 -64.0500 65° Northeast 600 690 33,000  Level Montreal Center
07:59AM 52.6000 -63.7833 78° East 590 679 33,000  Level Montreal Center
08:00AM 52.6667 -63.5167 68° East 590 679 33,000  Level Montreal Center
08:01AM 52.7167 -63.2667 72° East 590 679 33,000  Level Montreal Center
08:02AM 52.7667 -63.0000 73° East 590 679 33,000  Level Montreal Center
08:03AM 52.8167 -62.7333 73° East 600 690 33,000  Level Montreal Center
08:04AM 52.8667 -62.4667 73° East 600 690 33,000  Level Montreal Center
08:05AM 52.9000 -62.3000 72° East 600 690 33,000  Level Gander Center
08:06AM 52.9667 -62.0333 67° East 600 690 33,000  Level Gander Center
08:07AM 53.0167 -61.7833 72° East 600 690 33,000  Level Gander Center
08:08AM 53.0667 -61.5000 74° East 600 690 33,000  Level Gander Center
08:09AM 53.1167 -61.2500 71° East 600 690 33,000  Level Gander Center
08:10AM 53.1500 -60.9833 78° East 600 690 33,000  Level Gander Center
08:11AM 53.2000 -60.7167 73° East 600 690 33,000  Level Gander Center
08:12AM 53.2500 -60.4500 73° East 600 690 33,000  Level Gander Center
08:13AM 53.2833 -60.1833 78° East 600 690 33,000  Level Gander Center
08:14AM 53.3333 -59.9167 72° East 600 690 33,000  Level Gander Center
08:15AM 53.3833 -59.6333 73° East 600 690 33,000  Level Gander Center
08:16AM 53.4333 -59.3500 73° East 600 690 33,000  Level Gander Center
08:17AM 53.4667 -59.1000 77° East 600 690 33,000  Level Gander Center
08:18AM 53.5000 -58.8167 79° East 600 690 33,000  Level Gander Center
08:19AM 53.5500 -58.5500 72° East 600 690 33,000  Level Gander Center
08:20AM 53.6000 -58.2667 73° East 590 679 33,000  Level Gander Center
08:21AM 53.6333 -58.0167 77° East 590 679 33,000  Level Gander Center
08:22AM 53.6500 -57.7333 84° East 600 690 33,000  Level Gander Center
08:23AM 53.6667 -57.4500 84° East 600 690 33,000  Level Gander Center
08:24AM 53.7000 -57.1833 78° East 590 679 33,000  Level Gander Center
08:25AM 53.7167 -56.9000 84° East 590 679 33,000  Level Gander Center
08:26AM 53.7500 -56.6500 77° East 590 679 33,000  Level Gander Center
08:27AM 53.7667 -56.3667 84° East 590 679 33,000  Level Gander Center
08:28AM 53.7833 -56.0667 85° East 590 679 33,000  Level Gander Center
08:29AM 53.8000 -55.7833 84° East 590 679 33,000  Level Gander Center
08:30AM 53.8333 -55.5333 77° East 590 679 33,000  Level Gander Center
08:31AM 53.8333 -55.2667 90° East 590 679 33,000  Level Gander Center
08:32AM 53.8500 -54.9833 84° East 580 667 33,000  Level Gander Center
08:33AM 53.8667 -54.7333 83° East 580 667 33,000  Level Gander Center
08:34AM 53.8667 -54.4667 90° East 580 667 33,000  Level Gander Center
08:35AM 53.9000 -54.1833 79° East 590 679 33,000  Level Gander Center
08:36AM 53.9000 -53.9333 90° East 590 679 33,000  Level Gander Center
08:37AM 53.9167 -53.6333 84° East 590 679 33,000  Level Gander Center
08:38AM 53.9333 -53.3833 83° East 580 667 33,000  Level Gander Center
08:39AM 53.9167 -53.1000 96° East 580 667 33,000  Level Gander Center
08:40AM 53.9333 -52.8333 84° East 570 656 33,000  Level Gander Center
08:41AM 53.9333 -52.5500 90° East 570 656 33,000  Level Gander Center
08:42AM 53.9500 -52.2833 84° East 570 656 33,000  Level Gander Center
08:43AM 53.9500 -52.0333 90° East 570 656 33,000  Level Gander Center
08:44AM 53.9667 -51.7500 84° East 570 656 33,000  Level Gander Center
08:45AM 53.9500 -51.4833 96° East 560 644 33,000  Level Gander Center
08:46AM 53.9667 -51.2333 83° East 560 644 33,000  Level Gander Center
08:47AM 53.9833 -50.9667 84° East 560 644 33,000  Level Gander Center
08:48AM 53.9833 -50.7167 90° East 560 644 33,000  Level Gander Center
08:49AM 53.9833 -50.4500 90° East 550 633 33,000  Level Gander Center
08:50AM 53.9833 -50.2167 90° East 270 311 33,000  Level Gander Center
08:51AM 54.0020 -49.9509 86° East  Level FlightAware Approximate
08:58AM 54.0607 -48.2220 86° East  Level FlightAware Approximate
08:59AM 54.0671 -47.9746 87° East  Level FlightAware Approximate
09:00AM 54.0730 -47.7272 88° East  Level FlightAware Approximate
09:01AM 54.0783 -47.4797 88° East  Level FlightAware Approximate
09:02AM 54.0831 -47.2322 88° East  Level FlightAware Approximate
09:03AM 54.0875 -46.9846 88° East  Level FlightAware Approximate
09:04AM 54.0913 -46.7369 88° East  Level FlightAware Approximate
09:05AM 54.0946 -46.4892 89° East  Level FlightAware Approximate
09:06AM 54.0974 -46.2415 89° East  Level FlightAware Approximate
09:07AM 54.0997 -45.9938 89° East  Level FlightAware Approximate
09:08AM 54.1015 -45.7460 89° East  Level FlightAware Approximate
09:09AM 54.1028 -45.4982 89° East  Level FlightAware Approximate
09:10AM 54.1036 -45.2504 90° East  Level FlightAware Approximate
09:11AM 54.1038 -45.0025 90° East  Level FlightAware Approximate
09:12AM 54.1036 -44.7547 90° East  Level FlightAware Approximate
09:13AM 54.1028 -44.5069 90° East  Level FlightAware Approximate
09:14AM 54.1015 -44.2591 90° East  Level FlightAware Approximate
09:15AM 54.0998 -44.0113 91° East  Level FlightAware Approximate
09:16AM 54.0975 -43.7636 91° East  Level FlightAware Approximate
09:17AM 54.0947 -43.5158 91° East  Level FlightAware Approximate
09:18AM 54.0914 -43.2682 91° East  Level FlightAware Approximate
09:19AM 54.0876 -43.0205 91° East  Level FlightAware Approximate
09:20AM 54.0832 -42.7729 92° East  Level FlightAware Approximate
09:21AM 54.0784 -42.5253 92° East  Level FlightAware Approximate
09:22AM 54.0731 -42.2779 92° East  Level FlightAware Approximate
09:23AM 54.0672 -42.0304 92° East  Level FlightAware Approximate
09:24AM 54.0609 -41.7831 92° East  Level FlightAware Approximate
09:25AM 54.0540 -41.5358 93° East  Level FlightAware Approximate
09:26AM 54.0467 -41.2886 93° East  Level FlightAware Approximate
09:27AM 54.0388 -41.0415 93° East  Level FlightAware Approximate
09:28AM 54.0304 -40.7946 93° East  Level FlightAware Approximate
09:29AM 54.0215 -40.5477 93° East  Level FlightAware Approximate
09:30AM 54.0121 -40.3009 94° East  Level FlightAware Approximate
09:31AM 54.0022 -40.0542 94° East  Level FlightAware Approximate
09:32AM 54.0269 -39.8126 76° East  Level FlightAware Approximate
09:33AM 54.0610 -39.5720 76° East  Level FlightAware Approximate
09:34AM 54.0947 -39.3311 77° East  Level FlightAware Approximate
09:35AM 54.1278 -39.0897 77° East  Level FlightAware Approximate
09:36AM 54.1604 -38.8480 77° East  Level FlightAware Approximate
09:37AM 54.1926 -38.6059 77° East  Level FlightAware Approximate
09:38AM 54.2243 -38.3634 77° East  Level FlightAware Approximate
09:39AM 54.2555 -38.1206 78° East  Level FlightAware Approximate
09:40AM 54.2862 -37.8774 78° East  Level FlightAware Approximate
09:41AM 54.3164 -37.6338 78° East  Level FlightAware Approximate
09:42AM 54.3461 -37.3899 78° East  Level FlightAware Approximate
09:43AM 54.3753 -37.1456 78° East  Level FlightAware Approximate
09:44AM 54.4041 -36.9010 78° East  Level FlightAware Approximate
09:45AM 54.4323 -36.6561 79° East  Level FlightAware Approximate
09:46AM 54.4601 -36.4108 79° East  Level FlightAware Approximate
09:47AM 54.4873 -36.1651 79° East  Level FlightAware Approximate
09:48AM 54.5141 -35.9192 79° East  Level FlightAware Approximate
09:49AM 54.5403 -35.6729 79° East  Level FlightAware Approximate
09:50AM 54.5661 -35.4263 80° East  Level FlightAware Approximate
09:51AM 54.5913 -35.1795 80° East  Level FlightAware Approximate
09:52AM 54.6161 -34.9323 80° East  Level FlightAware Approximate
09:53AM 54.6403 -34.6848 80° East  Level FlightAware Approximate
09:54AM 54.6640 -34.4370 80° East  Level FlightAware Approximate
09:55AM 54.6872 -34.1889 81° East  Level FlightAware Approximate
09:56AM 54.7100 -33.9406 81° East  Level FlightAware Approximate
09:57AM 54.7322 -33.6920 81° East  Level FlightAware Approximate
09:58AM 54.7539 -33.4431 81° East  Level FlightAware Approximate
09:59AM 54.7751 -33.1939 82° East  Level FlightAware Approximate
10:00AM 54.7957 -32.9445 82° East  Level FlightAware Approximate
10:01AM 54.8159 -32.6948 82° East  Level FlightAware Approximate
10:02AM 54.8356 -32.4449 82° East  Level FlightAware Approximate
10:03AM 54.8547 -32.1948 82° East  Level FlightAware Approximate
10:04AM 54.8733 -31.9444 83° East  Level FlightAware Approximate
10:05AM 54.8915 -31.6938 83° East  Level FlightAware Approximate
10:06AM 54.9091 -31.4429 83° East  Level FlightAware Approximate
10:07AM 54.9261 -31.1919 83° East  Level FlightAware Approximate
10:08AM 54.9427 -30.9406 83° East  Level FlightAware Approximate
10:09AM 54.9588 -30.6891 84° East  Level FlightAware Approximate
10:10AM 54.9743 -30.4375 84° East  Level FlightAware Approximate
10:11AM 54.9893 -30.1856 84° East  Level FlightAware Approximate
10:12AM 55.0027 -29.9334 86° East  Level FlightAware Approximate
10:13AM 55.0127 -29.6807 86° East  Level FlightAware Approximate
10:14AM 55.0221 -29.4277 86° East  Level FlightAware Approximate
10:15AM 55.0310 -29.1747 86° East  Level FlightAware Approximate
10:16AM 55.0394 -28.9216 87° East  Level FlightAware Approximate
10:17AM 55.0472 -28.6684 87° East  Level FlightAware Approximate
10:18AM 55.0546 -28.4150 87° East  Level FlightAware Approximate
10:19AM 55.0614 -28.1616 87° East  Level FlightAware Approximate
10:20AM 55.0676 -27.9081 87° East  Level FlightAware Approximate
10:21AM 55.0734 -27.6546 88° East  Level FlightAware Approximate
10:22AM 55.0786 -27.4009 88° East  Level FlightAware Approximate
10:23AM 55.0833 -27.1472 88° East  Level FlightAware Approximate
10:24AM 55.0875 -26.8934 88° East  Level FlightAware Approximate
10:25AM 55.0911 -26.6396 88° East  Level FlightAware Approximate
10:26AM 55.0942 -26.3858 89° East  Level FlightAware Approximate
10:27AM 55.0968 -26.1319 89° East  Level FlightAware Approximate
10:28AM 55.0989 -25.8780 89° East  Level FlightAware Approximate
10:29AM 55.1004 -25.6240 89° East  Level FlightAware Approximate
10:30AM 55.1015 -25.3701 89° East  Level FlightAware Approximate
10:31AM 55.1020 -25.1161 90° East  Level FlightAware Approximate
10:32AM 55.1020 -24.8621 90° East  Level FlightAware Approximate
10:33AM 55.1015 -24.6082 90° East  Level FlightAware Approximate
10:34AM 55.1004 -24.3542 90° East  Level FlightAware Approximate
10:35AM 55.0988 -24.1003 91° East  Level FlightAware Approximate
10:36AM 55.0967 -23.8463 91° East  Level FlightAware Approximate
10:37AM 55.0941 -23.5924 91° East  Level FlightAware Approximate
10:38AM 55.0909 -23.3386 91° East  Level FlightAware Approximate
10:39AM 55.0872 -23.0848 91° East  Level FlightAware Approximate
10:40AM 55.0830 -22.8310 92° East  Level FlightAware Approximate
10:41AM 55.0783 -22.5773 92° East  Level FlightAware Approximate
10:42AM 55.0730 -22.3237 92° East  Level FlightAware Approximate
10:43AM 55.0672 -22.0701 92° East  Level FlightAware Approximate
10:44AM 55.0608 -21.8166 92° East  Level FlightAware Approximate
10:45AM 55.0540 -21.5632 93° East  Level FlightAware Approximate
10:46AM 55.0466 -21.3099 93° East  Level FlightAware Approximate
10:47AM 55.0387 -21.0567 93° East  Level FlightAware Approximate
10:48AM 55.0303 -20.8035 93° East  Level FlightAware Approximate
10:49AM 55.0213 -20.5505 93° East  Level FlightAware Approximate
10:50AM 55.0118 -20.2976 94° East  Level FlightAware Approximate
10:51AM 55.0018 -20.0449 94° East  Level FlightAware Approximate
10:52AM 54.9866 -19.7930 96° East  Level FlightAware Approximate
10:53AM 54.9699 -19.5415 97° East  Level FlightAware Approximate
10:54AM 54.9527 -19.2902 97° East  Level FlightAware Approximate
10:55AM 54.9350 -19.0391 97° East  Level FlightAware Approximate
10:56AM 54.9187 -18.7878 96° East  Level FlightAware Approximate
10:57AM 54.9022 -18.5367 96° East  Level FlightAware Approximate
10:58AM 54.8851 -18.2858 97° East  Level FlightAware Approximate
10:59AM 54.8675 -18.0351 97° East  Level FlightAware Approximate
11:00AM 54.8494 -17.7847 97° East  Level FlightAware Approximate
11:01AM 54.8308 -17.5344 97° East  Level FlightAware Approximate
11:02AM 54.8116 -17.2844 97° East  Level FlightAware Approximate
11:03AM 54.7920 -17.0346 98° East  Level FlightAware Approximate
11:04AM 54.7718 -16.7851 98° East  Level FlightAware Approximate
11:05AM 54.7512 -16.5359 98° East  Level FlightAware Approximate
11:06AM 54.7300 -16.2868 98° East  Level FlightAware Approximate
11:07AM 54.7085 -16.0380 98° East  Level FlightAware Approximate
11:08AM 54.6868 -15.7894 98° East  Level FlightAware Approximate
11:09AM 54.6646 -15.5411 99° East  Level FlightAware Approximate
11:10AM 54.6419 -15.2930 99° East  Level FlightAware Approximate
11:11AM 54.6187 -15.0452 99° East  Level FlightAware Approximate
11:12AM 54.5947 -14.7978 100° East  Level FlightAware Approximate
11:13AM 54.5693 -14.5509 100° East  Level FlightAware Approximate
11:14AM 54.5433 -14.3044 100° East  Level FlightAware Approximate
11:15AM 54.5169 -14.0582 100° East  Level FlightAware Approximate
11:16AM 54.4900 -13.8123 101° East  Level FlightAware Approximate
11:17AM 54.4625 -13.5667 101° East  Level FlightAware Approximate
11:18AM 54.4346 -13.3214 101° East  Level FlightAware Approximate
11:19AM 54.4062 -13.0765 101° East  Level FlightAware Approximate
11:20AM 54.3773 -12.8319 101° East  Level FlightAware Approximate
11:21AM 54.3479 -12.5877 102° East  Level FlightAware Approximate
11:22AM 54.3180 -12.3439 102° East  Level FlightAware Approximate
11:23AM 54.2893 -12.0997 101° East  Level FlightAware Approximate
11:24AM 54.2601 -11.8560 101° East  Level FlightAware Approximate
11:25AM 54.2305 -11.6125 102° East  Level FlightAware Approximate
11:26AM 54.1999 -11.3696 102° East  Level FlightAware Approximate
11:27AM 54.1684 -11.1272 102° East  Level FlightAware Approximate
11:28AM 54.1365 -10.8851 103° East  Level FlightAware Approximate
11:29AM 54.1040 -10.6435 103° East  Level FlightAware Approximate
11:30AM 54.0711 -10.4022 103° East  Level FlightAware Approximate
11:31AM 54.0374 -10.1614 104° East  Level FlightAware Approximate
11:32AM 54.0030 -9.9212 104° East  Level FlightAware Approximate
11:33AM 53.9680 -9.6813 104° East  Level FlightAware Approximate
11:34AM 53.9326 -9.4418 104° East  Level FlightAware Approximate
11:35AM 53.8967 -9.2028 104° East  Level FlightAware Approximate
11:36AM 53.8603 -8.9642 104° East  Level FlightAware Approximate
11:37AM 53.8235 -8.7259 105° East  Level FlightAware Approximate
11:38AM 53.7861 -8.4881 105° East  Level FlightAware Approximate
11:38AM 53.3358 -8.9801 105° East 486 559 35,500  Level FlightAware UK
11:39AM 53.7483 -8.2508 105° East  Level FlightAware Approximate
11:39AM 53.3153 -8.9149 118° Southeast 486 559 35,500  Level FlightAware UK
11:39AM 53.2949 -8.8503 118° Southeast 484 557 35,500  Level FlightAware UK
11:39AM 53.2746 -8.7858 118° Southeast 488 562 35,500  Level FlightAware UK
11:40AM 53.2544 -8.7214 118° Southeast 486 559 35,500  Level FlightAware UK
11:40AM 53.2341 -8.6573 118° Southeast 486 559 35,500  Level FlightAware UK
11:40AM 53.2137 -8.5939 118° Southeast 482 555 35,500  Level FlightAware UK
11:41AM 53.1935 -8.5305 118° Southeast 478 550 35,500  Level FlightAware UK
11:41AM 53.1732 -8.4673 118° Southeast 478 550 35,500  Level FlightAware UK
11:41AM 53.1527 -8.4036 118° Southeast 478 550 35,500  Level FlightAware UK
11:41AM 53.1325 -8.3406 118° Southeast 476 548 35,500  Level FlightAware UK
11:42AM 53.1119 -8.2793 119° Southeast 474 545 35,500  Level FlightAware UK
11:42AM 53.0918 -8.2168 118° Southeast 476 548 35,500  Level FlightAware UK
11:42AM 53.0714 -8.1540 118° Southeast 478 550 35,500  Level FlightAware UK
11:43AM 53.0508 -8.0911 118° Southeast 482 555 35,500  Level FlightAware UK
11:43AM 53.0303 -8.0280 118° Southeast 480 552 35,500  Level FlightAware UK
11:43AM 53.0098 -7.9651 118° Southeast 480 552 35,500  Level FlightAware UK
11:44AM 52.9892 -7.9021 118° Southeast 480 552 35,500  Level FlightAware UK
11:44AM 52.9687 -7.8392 118° Southeast 478 550 35,500  Level FlightAware UK
11:44AM 52.9482 -7.7763 118° Southeast 478 550 35,500  Level FlightAware UK
11:44AM 52.9276 -7.7135 119° Southeast 478 550 35,500  Level FlightAware UK
11:45AM 52.9069 -7.6508 119° Southeast 476 548 35,500  Level FlightAware UK
11:45AM 52.8860 -7.5880 119° Southeast 474 545 35,500  Level FlightAware UK
11:45AM 52.8652 -7.5253 119° Southeast 478 550 35,500  Level FlightAware UK
11:46AM 52.8441 -7.4625 119° Southeast 480 552 35,500  Level FlightAware UK
11:46AM 52.8230 -7.3996 119° Southeast 482 555 35,500  Level FlightAware UK
11:46AM 52.8018 -7.3364 119° Southeast 482 555 35,500  Level FlightAware UK
11:47AM 52.7806 -7.2731 119° Southeast 484 557 35,500  Level FlightAware UK
11:47AM 52.7593 -7.2096 119° Southeast 486 559 35,500  Level FlightAware UK
11:47AM 52.7375 -7.1454 119° Southeast 484 557 35,500  Level FlightAware UK
11:47AM 52.7160 -7.0818 119° Southeast 488 562 35,500  Level FlightAware UK
11:48AM 52.6945 -7.0185 119° Southeast 484 557 35,500  Level FlightAware UK
11:48AM 52.6730 -6.9554 119° Southeast 490 564 35,500  Level FlightAware UK
11:48AM 52.6516 -6.8925 119° Southeast 486 559 35,500  Level FlightAware UK
11:49AM 52.6301 -6.8296 119° Southeast 484 557 35,500  Level FlightAware UK
11:49AM 52.6088 -6.7670 119° Southeast 492 566 35,500  Level FlightAware UK
11:49AM 52.5873 -6.7045 119° Southeast 488 562 35,500  Level FlightAware UK
11:50AM 52.5657 -6.6423 120° Southeast 488 562 35,500  Level FlightAware UK
11:50AM 52.5443 -6.5801 120° Southeast 486 559 35,500  Level FlightAware UK
11:50AM 52.5228 -6.5181 120° Southeast 486 559 35,500  Level FlightAware UK
11:50AM 52.5012 -6.4561 120° Southeast 486 559 35,500  Level FlightAware UK
11:51AM 52.4796 -6.3941 120° Southeast 486 559 35,500  Level FlightAware UK
11:51AM 52.4579 -6.3322 120° Southeast 484 557 35,500  Level FlightAware UK
11:51AM 52.4365 -6.2701 120° Southeast 486 559 35,500  Level FlightAware UK
11:52AM 52.4149 -6.2082 120° Southeast 486 559 35,500  Level FlightAware UK
11:52AM 52.3930 -6.1464 120° Southeast 486 559 35,500  Level FlightAware UK
11:52AM 52.3711 -6.0848 120° Southeast 488 562 35,500  Level FlightAware UK
11:53AM 52.3492 -6.0231 120° Southeast 498 573 35,500  Level FlightAware UK
11:53AM 52.3268 -5.9609 120° Southeast 494 568 35,500  Level FlightAware UK
11:53AM 52.3049 -5.8994 120° Southeast 496 571 35,500  Level FlightAware UK
11:53AM 52.2830 -5.8381 120° Southeast 494 568 35,500  Level FlightAware UK
11:54AM 52.2614 -5.7768 120° Southeast 492 566 35,500  Level FlightAware UK
11:54AM 52.2397 -5.7159 120° Southeast 490 564 35,500  Level FlightAware UK
11:54AM 52.2181 -5.6552 120° Southeast 494 568 35,500  Level FlightAware UK
11:55AM 52.1963 -5.5947 120° Southeast 490 564 35,500  Level FlightAware UK
11:55AM 52.1674 -5.5144 120° Southeast 488 562 35,500  Level FlightAware UK
11:55AM 52.1457 -5.4544 120° Southeast 486 559 35,500  Level FlightAware UK
11:56AM 52.1241 -5.3946 120° Southeast 486 559 35,500  Level FlightAware UK
11:56AM 52.1026 -5.3347 120° Southeast 488 562 35,500  Level FlightAware UK
11:56AM 52.0809 -5.2749 121° Southeast 490 564 35,500  Level FlightAware UK
11:57AM 52.0589 -5.2145 121° Southeast 488 562 35,500  Level FlightAware UK
11:57AM 52.0370 -5.1548 121° Southeast 484 557 35,500  Level FlightAware UK
11:57AM 52.0079 -5.0751 121° Southeast 486 559 35,500  Level FlightAware UK
11:58AM 51.9934 -5.0098 110° East 488 562 35,500  Level FlightAware UK
11:58AM 51.9831 -4.9437 104° East 492 566 35,500  Level FlightAware UK
11:58AM 51.9723 -4.8548 101° East 490 564 35,500  Level FlightAware UK
11:59AM 51.9647 -4.7878 100° East 490 564 35,500  Level FlightAware UK
11:59AM 51.9572 -4.7209 100° East 490 564 35,500  Level FlightAware UK
11:59AM 51.9498 -4.6538 100° East 492 566 35,500  Level FlightAware UK
11:59AM 51.9424 -4.5868 100° East 494 568 35,500  Level FlightAware UK
12:00PM 51.9321 -4.4975 101° East 494 568 35,500  Level FlightAware UK
12:00PM 51.9241 -4.4304 101° East 494 568 35,500  Level FlightAware UK
12:00PM 51.9160 -4.3634 101° East 496 571 35,500  Level FlightAware UK
12:01PM 51.9080 -4.2958 101° East 498 573 35,500  Level FlightAware UK
12:01PM 51.8998 -4.2293 101° East 492 566 35,500  Level FlightAware UK
12:01PM 51.8916 -4.1634 101° East 492 566 35,500  Level FlightAware UK
12:02PM 51.8834 -4.0977 101° East 490 564 35,500  Level FlightAware UK
12:02PM 51.8672 -3.9660 101° East 490 564 35,500  Level FlightAware UK
12:03PM 51.8590 -3.9002 101° East 492 566 35,500  Level FlightAware UK
12:03PM 51.8508 -3.8344 101° East 490 564 35,500  Level FlightAware UK
12:03PM 51.8426 -3.7686 101° East 488 562 35,500  Level FlightAware UK
12:04PM 51.8314 -3.6804 102° East 488 562 35,500  Level FlightAware UK
12:04PM 51.8230 -3.6146 102° East 490 564 35,500  Level FlightAware UK
12:04PM 51.8146 -3.5488 102° East 488 562 35,500  Level FlightAware UK
12:05PM 51.8033 -3.4610 102° East 488 562 35,500  Level FlightAware UK
12:05PM 51.7891 -3.3510 102° East 488 562 35,500  Level FlightAware UK
12:05PM 51.7803 -3.2841 102° East 486 559 35,500  Level FlightAware UK
12:06PM 51.7717 -3.2177 102° East 488 562 35,500  Level FlightAware UK
12:06PM 51.7630 -3.1512 102° East 492 566 35,500  Level FlightAware UK
12:06PM 51.7514 -3.0623 102° East 488 562 35,500  Level FlightAware UK
12:07PM 51.7425 -2.9947 102° East 488 562 35,500  Level FlightAware UK
12:07PM 51.7336 -2.9279 102° East 498 573 35,500  Level FlightAware UK
12:07PM 51.7246 -2.8610 102° East 498 573 35,500  Level FlightAware UK
12:08PM 51.7154 -2.7933 102° East 494 568 35,500  Level FlightAware UK
12:08PM 51.7034 -2.7040 102° East 498 573 35,500  Level FlightAware UK
12:08PM 51.6912 -2.6146 102° East 496 571 35,500  Level FlightAware UK
12:09PM 51.6821 -2.5476 102° East 502 578 35,500  Level FlightAware UK
12:09PM 51.6730 -2.4807 102° East 498 573 35,500  Level FlightAware UK
12:09PM 51.6637 -2.4130 102° East 494 568 35,500  Level FlightAware UK
12:10PM 51.6544 -2.3464 103° East 496 571 35,500  Level FlightAware UK
12:10PM 51.6450 -2.2800 103° East 498 573 35,500  Level FlightAware UK
12:10PM 51.6325 -2.1907 103° East 498 573 35,500  Level FlightAware UK
12:11PM 51.6231 -2.1244 103° East 498 573 35,500  Level FlightAware UK
12:11PM 51.6107 -2.0361 103° East 500 575 35,500  Level FlightAware UK
12:11PM 51.6012 -1.9700 103° East 498 573 35,500  Level FlightAware UK
12:12PM 51.5918 -1.9032 103° East 498 573 35,500  Level FlightAware UK
12:12PM 51.5823 -1.8373 103° East 498 573 35,500  Level FlightAware UK
12:12PM 51.5728 -1.7715 103° East 496 571 35,500  Level FlightAware UK
12:13PM 51.5632 -1.7052 103° East 494 568 35,500  Level FlightAware UK
12:13PM 51.5538 -1.6398 103° East 492 566 35,500 -480 Level FlightAware UK
12:13PM 51.5410 -1.5523 103° East 502 578 35,200 -780 Descending FlightAware UK
12:14PM 51.5247 -1.4411 103° East 496 571 34,800 -780 Descending FlightAware UK
12:14PM 51.5053 -1.3109 103° East 486 559 34,400 -720 Descending FlightAware UK
12:15PM 51.4957 -1.2461 103° East 486 559 34,200 -840 Descending FlightAware UK
12:15PM 51.4861 -1.1813 103° East 490 564 33,900 -1,020 Descending FlightAware UK
12:15PM 51.4781 -1.1169 101° East 486 559 33,600 -1,020 Descending FlightAware UK
12:16PM 51.4680 -1.0330 101° East 474 545 33,200 -1,020 Descending FlightAware UK
12:16PM 51.4605 -0.9698 101° East 478 550 32,900 -1,020 Descending FlightAware UK
12:16PM 51.4530 -0.9057 101° East 484 557 32,600 -900 Descending FlightAware UK
12:17PM 51.4373 -0.7743 101° East 494 568 32,100 -960 Descending FlightAware UK
12:18PM 51.4149 -0.5940 101° East 502 578 31,300 -1,020 Descending FlightAware UK
12:18PM 51.4064 -0.5265 101° East 500 575 31,000 -1,020 Descending FlightAware UK
12:18PM 51.3978 -0.4591 101° East 496 571 30,700 -1,020 Descending FlightAware UK
12:19PM 51.3812 -0.3279 101° East 496 571 30,100 -1,020 Descending FlightAware UK
12:19PM 51.3728 -0.2622 102° East 494 568 29,800 -1,020 Descending FlightAware UK
12:19PM 51.3643 -0.1979 102° East 488 562 29,500 -1,200 Descending FlightAware UK
12:20PM 51.3453 -0.0492 102° East 478 550 28,600 -1,440 Descending FlightAware UK
12:21PM 51.3321 0.0523 102° East 456 525 27,800 -1,320 Descending FlightAware UK
12:22PM 51.3070 0.2508 101° East 456 525 26,700 -960 Descending FlightAware UK
12:22PM 51.2998 0.3305 98° East 448 516 26,500 -600 Descending FlightAware UK
12:22PM 51.2961 0.3895 96° East 446 513 26,300 -540 Descending FlightAware UK
12:23PM 51.2870 0.5248 96° East 448 516 26,000 -900 Descending FlightAware UK
12:24PM 51.2745 0.6765 97° East 436 502 25,000 -1,380 Descending FlightAware UK
12:24PM 51.2698 0.7321 98° East 432 497 24,500 -1,440 Descending FlightAware UK
12:25PM 51.2640 0.8067 97° East 434 499 24,000 -1,200 Descending FlightAware UK
12:25PM 51.2595 0.8617 97° East 430 495 23,700 -1,020 Descending FlightAware UK
12:25PM 51.2549 0.9152 98° East 426 490 23,400 -1,020 Descending FlightAware UK
12:25PM 51.2504 0.9686 98° East 422 486 23,100 -1,020 Descending FlightAware UK
12:26PM 51.2442 1.0389 98° East 420 483 22,700 -1,020 Descending FlightAware UK
12:26PM 51.2396 1.0923 98° East 418 481 22,400 -1,020 Descending FlightAware UK
12:27PM 51.2244 1.2672 98° East 414 476 21,400 -1,020 Descending FlightAware UK
12:28PM 51.2182 1.3374 98° East 416 479 21,000 -1,020 Descending FlightAware UK
12:28PM 51.2101 1.4240 98° East 410 472 20,500 -1,020 Descending FlightAware UK
12:29PM 51.2027 1.5085 98° East 402 463 20,000 -900 Descending FlightAware UK
12:29PM 51.1983 1.5585 98° East 400 460 19,800 -840 Descending FlightAware UK
12:29PM 51.1937 1.6096 98° East 400 460 19,500 -840 Descending FlightAware UK
12:29PM 51.1890 1.6617 98° East 404 465 19,300 -720 Descending FlightAware UK
12:30PM 51.1841 1.7138 99° East 396 456 19,100 -720 Descending FlightAware UK
12:30PM 51.1781 1.7786 98° East 380 437 18,800 -660 Descending FlightAware UK
12:31PM 51.1721 1.8446 98° East 388 447 18,600 -480 Descending FlightAware UK
12:31PM 51.1675 1.8954 98° East 396 456 18,500 -180 Descending FlightAware UK
12:31PM 51.1625 1.9476 99° East 398 458 18,500  Level FlightAware UK
12:31PM 51.1576 1.9987 99° East 392 451 18,500  Level FlightAware UK
12:32PM 51.1529 2.0494 98° East 390 449 18,500  Level FlightAware UK
12:32PM 51.1483 2.0996 98° East 388 447 18,500  Level FlightAware UK
12:32PM 51.1420 2.1663 98° East 388 447 18,500  Level FlightAware UK
12:33PM 51.1277 2.3169 99° East 388 447 18,500  Level FlightAware UK
12:34PM 51.1226 2.3669 99° East 386 444 18,500  Level FlightAware UK
12:34PM 51.1110 2.4841 99° East 388 447 18,500  Level FlightAware UK
12:35PM 51.1060 2.5346 99° East 382 440 18,500  Level FlightAware UK
12:36PM 51.0872 2.7230 99° East 388 447 18,500  Level FlightAware UK
12:36PM 51.0810 2.7748 101° East 388 447 18,500  Level FlightAware UK
12:37PM 51.0657 2.8943 101° East 388 447 18,500 -300 Level FlightAware UK
12:37PM 51.0553 2.9798 101° East 388 447 18,200 -900 Descending FlightAware UK
12:38PM 51.0494 3.0312 100° East 382 440 17,800 -1,920 Descending FlightAware UK
12:38PM 51.0354 3.1496 101° East 376 433 16,300 -2,100 Descending FlightAware UK
12:39PM 51.0292 3.2005 101° East 374 430 15,700 -2,160 Descending FlightAware UK
12:39PM 51.0207 3.2667 102° East 372 428 14,800 -2,040 Descending FlightAware UK
12:39PM 51.0147 3.3167 101° East 374 430 14,300 -1,680 Descending FlightAware UK
12:40PM 51.0026 3.4145 101° East 366 421 13,300 -1,740 Descending FlightAware UK
12:40PM 50.9946 3.4781 101° East 360 414 12,600 -1,920 Descending FlightAware UK
12:41PM 50.9867 3.5416 101° East 358 412 11,800 -1,320 Descending FlightAware UK
12:42PM 50.9646 3.7069 102° East 332 382 10,700 -900 Descending FlightAware UK
12:42PM 50.9531 3.8052 100° East 1 1 10,200 -720 Descending FlightAware UK
12:45PM 50.9210 4.2326 114° Southeast  Level Estimated
12:52PM 50.9000 4.4833 112° Southeast  Level FlightAware Approximate
12:53PM 50.9014 4.4844 112° Southeast  Level Estimated
12:54PM 50.9000 4.4833 112° Southeast  Level FlightAware Approximate
12:55PM 50.9014 4.4844 112° Southeast  Level Estimated
12:56PM 50.9000 4.4833 112° Southeast  Level FlightAware Approximate
12:57PM 50.9014 4.4844 112° Southeast  Level Estimated
12:58PM 50.9000 4.4833 112° Southeast  Level FlightAware Approximate
12:59PM 50.9014 4.4844 112° Southeast  Level Estimated
01:00PM 50.9000 4.4833 112° Southeast  Level FlightAware Approximate
01:01PM 50.9014 4.4844 112° Southeast  Level Estimated
01:02PM 50.9000 4.4833 112° Southeast  Level FlightAware Approximate
01:03PM 50.9014 4.4844 112° Southeast  Level Estimated
01:04PM 50.9000 4.4833 112° Southeast  Level FlightAware Approximate